Time;durP1;ratioP1;P1;durP2;ratioP2;P2;SDS_P1;SDS_P2;PMS_P1;PMS_P2;Temp;Humidity;BMP_temperature;BMP_pressure;BME280_temperature;BME280_humidity;BME280_pressure;Samples;Min_cycle;Max_cycle;Signal;HPM_P1;HPM_P2
2024/01/11 00:00:59;;;;;;;58.63;22.20;;;;;;;;;;5000507;28;20042;-51
2024/01/11 00:03:25;;;;;;;60.75;23.45;;;;;;;;;;5000644;28;20029;-54
2024/01/11 00:05:51;;;;;;;58.72;20.45;;;;;;;;;;5001073;28;20046;-54
2024/01/11 00:08:17;;;;;;;57.05;19.25;;;;;;;;;;5001490;28;20445;-53
2024/01/11 00:10:43;;;;;;;59.92;20.25;;;;;;;;;;4998757;28;20418;-52
2024/01/11 00:13:10;;;;;;;54.13;19.35;;;;;;;;;;5000886;28;20054;-55
2024/01/11 00:15:36;;;;;;;55.60;20.15;;;;;;;;;;4998483;28;20064;-52
2024/01/11 00:18:02;;;;;;;50.15;20.00;;;;;;;;;;5004079;28;20050;-56
2024/01/11 00:20:28;;;;;;;47.55;19.42;;;;;;;;;;5006644;28;20033;-53
2024/01/11 00:22:54;;;;;;;49.85;20.45;;;;;;;;;;5006775;28;20425;-53
2024/01/11 00:25:20;;;;;;;52.13;19.58;;;;;;;;;;5001235;28;20046;-56
2024/01/11 00:27:46;;;;;;;56.65;22.05;;;;;;;;;;4998548;28;20041;-59
2024/01/11 00:30:13;;;;;;;59.80;19.88;;;;;;;;;;5003719;28;20041;-59
2024/01/11 00:32:39;;;;;;;52.58;19.98;;;;;;;;;;5002288;28;20428;-57
2024/01/11 00:35:05;;;;;;;52.35;18.55;;;;;;;;;;4999336;28;20051;-59
2024/01/11 00:37:32;;;;;;;53.20;20.42;;;;;;;;;;4999490;28;20072;-56
2024/01/11 00:39:58;;;;;;;52.75;19.35;;;;;;;;;;5001534;28;20060;-55
2024/01/11 00:42:24;;;;;;;48.55;19.20;;;;;;;;;;5001153;28;20049;-59
2024/01/11 00:44:50;;;;;;;51.33;18.15;;;;;;;;;;4996605;28;20041;-53
2024/01/11 00:47:16;;;;;;;47.65;19.05;;;;;;;;;;5001075;28;20030;-55
2024/01/11 00:49:42;;;;;;;50.15;18.67;;;;;;;;;;4997885;28;20034;-58
2024/01/11 00:52:09;;;;;;;58.80;21.48;;;;;;;;;;4995751;28;20525;-54
2024/01/11 00:54:35;;;;;;;55.75;20.17;;;;;;;;;;5005823;28;20034;-57
2024/01/11 00:57:01;;;;;;;52.90;19.38;;;;;;;;;;4998288;28;20058;-56
2024/01/11 00:59:27;;;;;;;50.88;18.55;;;;;;;;;;5002432;28;20502;-56
2024/01/11 01:01:54;;;;;;;48.72;17.83;;;;;;;;;;4995145;28;20418;-58
2024/01/11 01:04:20;;;;;;;45.40;17.92;;;;;;;;;;4997020;28;20050;-55
2024/01/11 01:06:46;;;;;;;43.40;16.55;;;;;;;;;;4998281;28;20041;-55
2024/01/11 01:09:13;;;;;;;50.47;19.13;;;;;;;;;;4997787;28;20038;-52
2024/01/11 01:11:39;;;;;;;44.33;16.50;;;;;;;;;;5005189;28;20033;-53
2024/01/11 01:14:05;;;;;;;49.13;17.40;;;;;;;;;;4998439;28;20041;-54
2024/01/11 01:16:31;;;;;;;45.70;16.65;;;;;;;;;;4999793;28;20054;-52
2024/01/11 01:18:58;;;;;;;49.00;17.17;;;;;;;;;;4996507;28;20042;-52
2024/01/11 01:21:24;;;;;;;46.60;16.65;;;;;;;;;;5000370;28;20402;-52
2024/01/11 01:23:50;;;;;;;46.15;17.45;;;;;;;;;;4985966;28;20045;-52
2024/01/11 01:26:16;;;;;;;44.45;16.83;;;;;;;;;;5000349;28;20057;-53
2024/01/11 01:28:42;;;;;;;47.28;18.00;;;;;;;;;;5002697;28;20057;-52
2024/01/11 01:31:09;;;;;;;50.00;17.90;;;;;;;;;;5001407;28;20061;-55
2024/01/11 01:33:35;;;;;;;49.00;18.27;;;;;;;;;;4997832;28;20108;-52
2024/01/11 01:36:02;;;;;;;46.90;18.20;;;;;;;;;;4997445;28;20046;-55
2024/01/11 01:38:30;;;;;;;49.70;18.67;;;;;;;;;;4998441;28;20042;-53
2024/01/11 01:40:56;;;;;;;48.90;18.80;;;;;;;;;;4997468;28;20560;-54
2024/01/11 01:43:22;;;;;;;51.20;18.45;;;;;;;;;;4998243;28;20038;-55
2024/01/11 01:45:48;;;;;;;52.67;21.02;;;;;;;;;;5000088;28;20058;-55
2024/01/11 01:48:14;;;;;;;64.60;22.20;;;;;;;;;;4999407;28;20049;-53
2024/01/11 01:50:42;;;;;;;54.17;19.75;;;;;;;;;;4995852;28;20514;-54
2024/01/11 01:53:08;;;;;;;50.58;20.33;;;;;;;;;;5001050;28;20049;-54
2024/01/11 01:55:34;;;;;;;63.25;22.70;;;;;;;;;;4997955;28;20062;-52
2024/01/11 01:58:03;;;;;;;47.55;19.92;;;;;;;;;;4996757;28;20422;-58
2024/01/11 02:00:29;;;;;;;61.50;21.55;;;;;;;;;;5000190;28;20065;-55
2024/01/11 02:02:56;;;;;;;52.88;20.48;;;;;;;;;;5000227;28;20054;-54
2024/01/11 02:05:23;;;;;;;58.33;22.40;;;;;;;;;;5001387;28;20037;-58
2024/01/11 02:07:49;;;;;;;63.58;21.27;;;;;;;;;;5007269;28;20502;-55
2024/01/11 02:10:16;;;;;;;57.38;21.60;;;;;;;;;;5001834;28;20049;-58
2024/01/11 02:12:43;;;;;;;59.67;20.85;;;;;;;;;;5004396;28;20045;-55
2024/01/11 02:15:09;;;;;;;58.15;21.75;;;;;;;;;;5005581;28;20100;-55
2024/01/11 02:17:35;;;;;;;51.55;21.05;;;;;;;;;;5002278;28;20034;-53
2024/01/11 02:20:03;;;;;;;62.85;21.80;;;;;;;;;;5000844;28;20053;-55
2024/01/11 02:22:34;;;;;;;55.72;21.23;;;;;;;;;;5007752;28;20528;-57
2024/01/11 02:25:00;;;;;;;59.88;20.83;;;;;;;;;;4998742;28;20792;-57
2024/01/11 02:27:26;;;;;;;52.03;20.45;;;;;;;;;;5005395;28;20034;-58
2024/01/11 02:29:52;;;;;;;53.22;21.67;;;;;;;;;;5004953;28;20497;-54
2024/01/11 02:32:19;;;;;;;55.22;21.75;;;;;;;;;;5001697;28;20065;-57
2024/01/11 02:34:45;;;;;;;59.08;21.50;;;;;;;;;;5001666;28;20042;-52
2024/01/11 02:37:12;;;;;;;51.00;20.50;;;;;;;;;;4993245;28;20038;-57
2024/01/11 02:39:39;;;;;;;56.40;20.67;;;;;;;;;;4997218;28;20045;-55
2024/01/11 02:42:05;;;;;;;50.95;19.48;;;;;;;;;;4995734;28;20046;-55
2024/01/11 02:44:31;;;;;;;58.30;21.52;;;;;;;;;;5007800;28;20042;-57
2024/01/11 02:46:58;;;;;;;48.13;19.00;;;;;;;;;;4998162;28;20045;-57
2024/01/11 02:49:24;;;;;;;48.88;18.48;;;;;;;;;;4993985;28;20046;-53
2024/01/11 02:51:50;;;;;;;44.25;18.45;;;;;;;;;;5004059;28;20052;-57
2024/01/11 02:54:16;;;;;;;49.15;18.92;;;;;;;;;;5000126;28;20508;-55
2024/01/11 02:56:42;;;;;;;46.88;18.65;;;;;;;;;;5005458;28;20033;-58
2024/01/11 02:59:08;;;;;;;51.28;19.45;;;;;;;;;;5004616;28;20065;-58
2024/01/11 03:01:35;;;;;;;60.75;20.15;;;;;;;;;;5006484;28;20528;-57
2024/01/11 03:04:01;;;;;;;49.05;19.60;;;;;;;;;;4999440;28;20041;-55
2024/01/11 03:06:27;;;;;;;45.20;18.88;;;;;;;;;;5004914;28;20049;-56
2024/01/11 03:08:53;;;;;;;62.15;18.77;;;;;;;;;;5000440;28;20489;-60
2024/01/11 03:11:19;;;;;;;46.30;19.10;;;;;;;;;;5007676;28;20049;-59
2024/01/11 03:13:45;;;;;;;44.95;17.05;;;;;;;;;;5003473;28;20385;-60
2024/01/11 03:16:11;;;;;;;51.00;18.95;;;;;;;;;;4996861;28;20041;-60
2024/01/11 03:18:37;;;;;;;50.75;18.08;;;;;;;;;;4990545;28;20049;-59
2024/01/11 03:21:04;;;;;;;47.58;20.88;;;;;;;;;;5004283;28;20041;-60
2024/01/11 03:23:30;;;;;;;47.35;18.88;;;;;;;;;;5002811;28;20046;-59
2024/01/11 03:25:56;;;;;;;49.95;18.70;;;;;;;;;;5005355;28;20041;-60
2024/01/11 03:28:22;;;;;;;56.83;19.38;;;;;;;;;;5004158;28;20405;-60
2024/01/11 03:30:48;;;;;;;55.67;19.58;;;;;;;;;;5000790;28;20045;-60
2024/01/11 03:33:14;;;;;;;43.67;18.40;;;;;;;;;;5000117;28;20045;-60
2024/01/11 03:35:40;;;;;;;50.83;18.63;;;;;;;;;;4999850;28;20034;-57
2024/01/11 03:38:06;;;;;;;47.17;18.88;;;;;;;;;;5000723;28;20042;-60
2024/01/11 03:40:32;;;;;;;49.03;18.48;;;;;;;;;;4999588;28;20049;-60
2024/01/11 03:42:59;;;;;;;49.13;18.05;;;;;;;;;;5002517;28;20053;-56
2024/01/11 03:45:25;;;;;;;49.35;17.30;;;;;;;;;;5002124;28;20053;-59
2024/01/11 03:47:51;;;;;;;51.85;17.92;;;;;;;;;;4998371;28;20042;-54
2024/01/11 03:50:18;;;;;;;53.80;18.98;;;;;;;;;;5004092;28;20494;-55
2024/01/11 03:52:45;;;;;;;49.90;17.45;;;;;;;;;;4999329;28;20040;-57
2024/01/11 03:55:11;;;;;;;47.83;17.70;;;;;;;;;;5001786;28;20061;-58
2024/01/11 03:57:37;;;;;;;46.22;17.58;;;;;;;;;;4998096;28;20529;-58
2024/01/11 04:00:05;;;;;;;45.28;18.23;;;;;;;;;;5000333;28;20046;-60
2024/01/11 04:02:31;;;;;;;49.30;18.52;;;;;;;;;;5005536;28;20030;-59
2024/01/11 04:04:58;;;;;;;51.13;18.20;;;;;;;;;;5003546;28;20394;-57
2024/01/11 04:07:24;;;;;;;46.95;17.75;;;;;;;;;;4996971;28;20045;-55
2024/01/11 04:09:50;;;;;;;55.00;18.63;;;;;;;;;;4995393;28;20034;-56
2024/01/11 04:12:16;;;;;;;47.95;17.80;;;;;;;;;;4996128;28;20053;-58
2024/01/11 04:14:42;;;;;;;50.08;18.98;;;;;;;;;;4997950;28;20041;-58
2024/01/11 04:17:08;;;;;;;51.83;19.33;;;;;;;;;;4997656;28;20050;-53
2024/01/11 04:19:34;;;;;;;52.42;19.52;;;;;;;;;;4999288;28;20049;-58
2024/01/11 04:22:00;;;;;;;50.67;19.33;;;;;;;;;;4999940;28;20049;-57
2024/01/11 04:24:26;;;;;;;50.45;20.10;;;;;;;;;;5001640;28;20389;-60
2024/01/11 04:26:52;;;;;;;48.55;19.02;;;;;;;;;;5002667;28;20046;-54
2024/01/11 04:29:18;;;;;;;47.85;18.55;;;;;;;;;;4996088;28;20034;-57
2024/01/11 04:31:44;;;;;;;51.03;19.60;;;;;;;;;;4997055;28;20022;-58
2024/01/11 04:34:10;;;;;;;53.78;21.35;;;;;;;;;;4998281;28;20045;-58
2024/01/11 04:36:37;;;;;;;55.78;21.20;;;;;;;;;;5001255;28;20060;-57
2024/01/11 04:39:03;;;;;;;51.17;19.77;;;;;;;;;;4998409;28;20053;-58
2024/01/11 04:41:29;;;;;;;56.15;21.50;;;;;;;;;;5000369;28;20377;-58
2024/01/11 04:43:55;;;;;;;48.10;19.92;;;;;;;;;;4994522;28;20037;-58
2024/01/11 04:46:22;;;;;;;54.08;20.55;;;;;;;;;;4996969;28;20038;-57
2024/01/11 04:48:49;;;;;;;52.03;18.67;;;;;;;;;;4994115;28;20045;-54
2024/01/11 04:51:17;;;;;;;58.72;21.90;;;;;;;;;;5007548;28;20037;-59
2024/01/11 04:53:45;;;;;;;55.75;20.85;;;;;;;;;;5008158;28;20038;-61
2024/01/11 04:56:13;;;;;;;56.40;20.77;;;;;;;;;;5006573;28;20025;-61
2024/01/11 04:58:40;;;;;;;65.00;21.95;;;;;;;;;;5003767;28;20042;-59
2024/01/11 05:01:11;;;;;;;57.20;22.27;;;;;;;;;;5007953;28;20039;-61
2024/01/11 05:03:37;;;;;;;58.92;22.27;;;;;;;;;;5005572;28;20057;-59
2024/01/11 05:06:03;;;;;;;62.92;21.50;;;;;;;;;;4997290;28;20046;-61
2024/01/11 05:08:29;;;;;;;59.80;20.23;;;;;;;;;;5006784;28;20048;-60
2024/01/11 05:10:55;;;;;;;52.88;19.55;;;;;;;;;;5016860;28;20508;-60
2024/01/11 05:13:22;;;;;;;56.22;21.73;;;;;;;;;;4998055;28;20481;-61
2024/01/11 05:15:48;;;;;;;55.90;20.73;;;;;;;;;;5003263;28;20037;-61
2024/01/11 05:18:14;;;;;;;60.20;20.90;;;;;;;;;;4997131;28;20401;-60
2024/01/11 05:20:40;;;;;;;54.00;20.67;;;;;;;;;;5003188;28;20061;-59
2024/01/11 05:23:06;;;;;;;57.40;21.42;;;;;;;;;;5001824;28;20046;-59
2024/01/11 05:25:35;;;;;;;54.33;22.13;;;;;;;;;;4992188;28;20118;-56
2024/01/11 05:28:03;;;;;;;52.88;20.38;;;;;;;;;;4996316;28;20058;-57
2024/01/11 05:30:29;;;;;;;58.25;22.15;;;;;;;;;;4996069;28;20046;-58
2024/01/11 05:32:56;;;;;;;62.97;22.40;;;;;;;;;;4992934;28;20054;-59
2024/01/11 05:35:27;;;;;;;48.45;20.73;;;;;;;;;;4999916;28;20536;-58
2024/01/11 05:37:55;;;;;;;50.75;20.67;;;;;;;;;;5000672;28;20045;-55
2024/01/11 05:40:21;;;;;;;54.33;22.73;;;;;;;;;;4998775;28;20050;-59
2024/01/11 05:42:48;;;;;;;58.92;21.27;;;;;;;;;;4996416;28;20038;-60
2024/01/11 05:45:16;;;;;;;57.85;20.77;;;;;;;;;;5006167;28;20034;-60
2024/01/11 05:47:44;;;;;;;60.55;22.45;;;;;;;;;;5006237;28;20524;-59
2024/01/11 05:50:11;;;;;;;59.10;20.63;;;;;;;;;;5005761;28;20046;-60
2024/01/11 05:52:37;;;;;;;58.30;22.42;;;;;;;;;;5000293;28;20053;-58
2024/01/11 05:55:04;;;;;;;60.28;21.70;;;;;;;;;;5002753;28;20486;-60
2024/01/11 05:57:31;;;;;;;49.53;19.58;;;;;;;;;;5004928;28;20409;-58
2024/01/11 05:59:57;;;;;;;57.35;20.33;;;;;;;;;;5000605;28;20040;-60
2024/01/11 06:02:23;;;;;;;57.75;20.67;;;;;;;;;;4999809;28;20034;-59
2024/01/11 06:04:49;;;;;;;54.33;19.77;;;;;;;;;;5003714;28;20045;-57
2024/01/11 06:07:15;;;;;;;47.38;17.88;;;;;;;;;;5004573;28;20041;-60
2024/01/11 06:09:41;;;;;;;52.50;19.35;;;;;;;;;;5005618;28;20037;-61
2024/01/11 06:12:08;;;;;;;46.55;18.30;;;;;;;;;;5025871;28;20034;-61
2024/01/11 06:14:35;;;;;;;61.35;19.52;;;;;;;;;;5001873;28;20052;-61
2024/01/11 06:17:01;;;;;;;55.88;21.67;;;;;;;;;;5017163;28;20045;-60
2024/01/11 06:19:28;;;;;;;47.67;19.48;;;;;;;;;;5006446;28;20385;-60
2024/01/11 06:21:54;;;;;;;49.08;19.15;;;;;;;;;;5007352;28;20034;-60
2024/01/11 06:24:20;;;;;;;53.92;19.95;;;;;;;;;;5005139;28;20374;-60
2024/01/11 06:26:46;;;;;;;55.60;22.45;;;;;;;;;;5000053;28;20049;-59
2024/01/11 06:29:12;;;;;;;59.13;22.15;;;;;;;;;;5001418;28;20038;-60
2024/01/11 06:31:38;;;;;;;56.13;23.08;;;;;;;;;;5018619;28;20037;-60
2024/01/11 06:34:04;;;;;;;54.70;20.45;;;;;;;;;;5004204;28;20030;-60
2024/01/11 06:36:30;;;;;;;59.50;22.40;;;;;;;;;;4999047;28;20042;-60
2024/01/11 06:38:56;;;;;;;60.63;22.63;;;;;;;;;;4999271;28;20041;-61
2024/01/11 06:41:23;;;;;;;60.50;21.80;;;;;;;;;;4985141;28;20046;-61
2024/01/11 06:43:49;;;;;;;50.88;18.95;;;;;;;;;;5006853;28;20049;-61
2024/01/11 06:46:21;;;;;;;56.10;21.08;;;;;;;;;;5000840;28;20058;-60
2024/01/11 06:48:49;;;;;;;52.45;21.17;;;;;;;;;;4981504;28;20051;-61
2024/01/11 06:51:16;;;;;;;57.13;20.38;;;;;;;;;;4984120;28;20048;-62
2024/01/11 06:53:42;;;;;;;61.53;22.25;;;;;;;;;;5004502;28;20041;-61
2024/01/11 06:56:19;;;;;;;60.88;21.67;;;;;;;;;;5002378;28;20038;-61
2024/01/11 06:58:46;;;;;;;58.50;21.23;;;;;;;;;;5005362;28;20054;-61
2024/01/11 07:01:13;;;;;;;60.88;21.73;;;;;;;;;;4997984;28;20049;-62
2024/01/11 07:03:39;;;;;;;58.30;20.20;;;;;;;;;;5003202;28;20400;-61
2024/01/11 07:06:06;;;;;;;56.25;20.05;;;;;;;;;;5010972;28;20034;-61
2024/01/11 07:08:35;;;;;;;55.65;21.30;;;;;;;;;;5006734;28;20047;-60
2024/01/11 07:11:04;;;;;;;59.22;24.33;;;;;;;;;;5008451;28;20053;-61
2024/01/11 07:13:31;;;;;;;59.70;24.15;;;;;;;;;;5003284;28;20267;-61
2024/01/11 07:15:58;;;;;;;56.97;22.92;;;;;;;;;;4992109;28;20042;-61
2024/01/11 07:18:25;;;;;;;60.55;22.30;;;;;;;;;;5005706;28;20049;-60
2024/01/11 07:20:52;;;;;;;52.53;20.42;;;;;;;;;;5000718;28;20054;-60
2024/01/11 07:23:18;;;;;;;52.13;20.13;;;;;;;;;;5002147;28;20042;-59
2024/01/11 07:25:45;;;;;;;63.47;24.17;;;;;;;;;;5014859;28;20041;-59
2024/01/11 07:28:11;;;;;;;69.65;23.95;;;;;;;;;;5002189;28;20053;-61
2024/01/11 07:30:37;;;;;;;59.67;24.08;;;;;;;;;;5007164;28;20049;-60
2024/01/11 07:33:04;;;;;;;69.88;23.20;;;;;;;;;;4990527;28;20398;-58
2024/01/11 07:35:31;;;;;;;64.15;26.45;;;;;;;;;;5004416;28;20073;-59
2024/01/11 07:37:58;;;;;;;66.90;24.55;;;;;;;;;;5016283;28;20061;-60
2024/01/11 07:40:24;;;;;;;69.85;26.13;;;;;;;;;;5005204;28;20041;-60
2024/01/11 07:42:51;;;;;;;74.18;28.05;;;;;;;;;;5018801;28;20060;-60
2024/01/11 07:45:17;;;;;;;73.70;27.95;;;;;;;;;;5021726;28;20026;-58
2024/01/11 07:47:43;;;;;;;73.60;27.08;;;;;;;;;;5003664;28;20054;-60
2024/01/11 07:50:09;;;;;;;66.20;24.90;;;;;;;;;;4996654;28;20482;-59
2024/01/11 07:52:36;;;;;;;65.25;25.25;;;;;;;;;;4999217;28;20048;-60
2024/01/11 07:55:07;;;;;;;59.33;22.55;;;;;;;;;;4996913;28;20046;-61
2024/01/11 07:57:36;;;;;;;58.42;21.23;;;;;;;;;;4996641;28;20045;-59
2024/01/11 08:00:06;;;;;;;60.95;22.45;;;;;;;;;;5003741;28;20382;-60
2024/01/11 08:02:39;;;;;;;65.75;23.67;;;;;;;;;;4987376;28;20330;-60
2024/01/11 08:05:05;;;;;;;58.22;21.73;;;;;;;;;;5004491;28;20038;-60
2024/01/11 08:07:31;;;;;;;72.32;26.95;;;;;;;;;;4996868;28;20042;-61
2024/01/11 08:09:58;;;;;;;70.85;25.73;;;;;;;;;;5016337;28;20038;-60
2024/01/11 08:12:24;;;;;;;78.63;29.55;;;;;;;;;;5004018;28;20485;-60
2024/01/11 08:14:51;;;;;;;73.43;27.27;;;;;;;;;;4998862;28;20267;-60
2024/01/11 08:17:19;;;;;;;70.95;26.38;;;;;;;;;;5006770;28;20042;-60
2024/01/11 08:19:45;;;;;;;81.60;31.08;;;;;;;;;;5004236;28;20041;-58
2024/01/11 08:22:11;;;;;;;89.40;33.33;;;;;;;;;;5000686;28;20050;-61
2024/01/11 08:24:38;;;;;;;80.07;31.42;;;;;;;;;;5014723;28;20041;-60
2024/01/11 08:27:05;;;;;;;82.03;32.00;;;;;;;;;;5001756;28;20401;-59
2024/01/11 08:29:32;;;;;;;93.30;33.50;;;;;;;;;;5002143;28;20053;-60
2024/01/11 08:31:58;;;;;;;90.80;34.25;;;;;;;;;;4980675;28;20057;-61
2024/01/11 08:34:26;;;;;;;86.03;34.53;;;;;;;;;;4997069;28;20053;-61
2024/01/11 08:36:52;;;;;;;81.32;33.42;;;;;;;;;;4994791;28;20030;-61
2024/01/11 08:39:19;;;;;;;93.68;35.30;;;;;;;;;;5001546;28;20042;-61
2024/01/11 08:41:45;;;;;;;91.57;32.60;;;;;;;;;;5001697;28;20038;-61
2024/01/11 08:44:11;;;;;;;89.45;32.25;;;;;;;;;;5000188;28;20041;-63
2024/01/11 08:46:37;;;;;;;85.45;30.92;;;;;;;;;;5005148;28;20046;-63
2024/01/11 08:49:04;;;;;;;83.00;29.50;;;;;;;;;;4997594;28;20050;-63
2024/01/11 08:51:30;;;;;;;85.47;30.25;;;;;;;;;;5006121;28;20046;-60
2024/01/11 08:53:57;;;;;;;76.43;28.70;;;;;;;;;;4998813;28;20036;-61
2024/01/11 08:56:23;;;;;;;72.63;28.27;;;;;;;;;;5002737;28;20041;-58
2024/01/11 08:58:49;;;;;;;95.53;33.17;;;;;;;;;;5004471;28;20045;-60
2024/01/11 09:01:15;;;;;;;88.35;30.02;;;;;;;;;;5000578;28;20045;-61
2024/01/11 09:03:42;;;;;;;80.10;29.85;;;;;;;;;;4995672;28;20046;-61
2024/01/11 09:06:08;;;;;;;78.13;29.90;;;;;;;;;;4998939;28;20042;-61
2024/01/11 09:08:34;;;;;;;85.28;30.60;;;;;;;;;;4999500;28;20034;-61
2024/01/11 09:11:00;;;;;;;74.93;28.60;;;;;;;;;;5000335;28;20041;-60
2024/01/11 09:13:28;;;;;;;82.70;29.67;;;;;;;;;;5004017;28;20057;-60
2024/01/11 09:15:55;;;;;;;81.43;29.50;;;;;;;;;;5000064;28;20450;-60
2024/01/11 09:18:21;;;;;;;81.95;30.70;;;;;;;;;;4997253;28;20030;-60
2024/01/11 09:20:48;;;;;;;95.50;31.52;;;;;;;;;;5007481;28;20034;-62
2024/01/11 09:23:15;;;;;;;82.70;31.10;;;;;;;;;;5004847;28;20046;-61
2024/01/11 09:25:42;;;;;;;81.03;31.42;;;;;;;;;;4997023;28;20030;-61
2024/01/11 09:28:08;;;;;;;77.93;30.58;;;;;;;;;;4998742;28;20034;-61
2024/01/11 09:30:34;;;;;;;86.45;31.98;;;;;;;;;;5004670;28;20030;-61
2024/01/11 09:33:01;;;;;;;92.13;33.13;;;;;;;;;;4998098;28;20410;-61
2024/01/11 09:35:27;;;;;;;79.55;30.58;;;;;;;;;;4997708;28;20726;-61
2024/01/11 09:37:53;;;;;;;88.00;30.55;;;;;;;;;;4999064;28;20046;-62
2024/01/11 09:40:20;;;;;;;82.35;30.42;;;;;;;;;;4996136;28;20049;-61
2024/01/11 09:42:46;;;;;;;79.95;32.03;;;;;;;;;;4999551;28;20042;-61
2024/01/11 09:45:12;;;;;;;93.70;33.72;;;;;;;;;;4998565;28;20077;-61
2024/01/11 09:47:39;;;;;;;77.82;31.23;;;;;;;;;;5000236;28;20413;-62
2024/01/11 09:50:07;;;;;;;81.70;31.58;;;;;;;;;;5002468;28;20437;-62
2024/01/11 09:52:33;;;;;;;90.22;32.92;;;;;;;;;;4998415;28;20026;-61
2024/01/11 09:55:00;;;;;;;86.50;32.33;;;;;;;;;;5001218;28;20046;-62
2024/01/11 09:57:30;;;;;;;84.65;31.50;;;;;;;;;;4999260;28;20041;-61
2024/01/11 09:59:57;;;;;;;78.88;32.92;;;;;;;;;;4999948;28;20041;-61
2024/01/11 10:02:26;;;;;;;84.00;32.30;;;;;;;;;;5000915;28;20042;-61
2024/01/11 10:04:53;;;;;;;87.22;31.65;;;;;;;;;;5001652;28;20045;-61
2024/01/11 10:07:23;;;;;;;85.93;30.88;;;;;;;;;;4997561;28;20042;-60
2024/01/11 10:09:49;;;;;;;77.55;30.30;;;;;;;;;;4997403;28;20520;-61
2024/01/11 10:12:17;;;;;;;85.00;31.08;;;;;;;;;;5003735;28;20054;-60
2024/01/11 10:14:43;;;;;;;74.32;30.02;;;;;;;;;;4996504;28;20032;-61
2024/01/11 10:17:09;;;;;;;73.60;28.77;;;;;;;;;;4995259;28;20031;-60
2024/01/11 10:19:35;;;;;;;76.20;29.80;;;;;;;;;;5002299;28;20049;-62
2024/01/11 10:22:03;;;;;;;71.15;29.75;;;;;;;;;;5002267;28;20038;-61
2024/01/11 10:24:29;;;;;;;76.80;29.88;;;;;;;;;;4998265;28;20041;-60
2024/01/11 10:26:56;;;;;;;81.13;31.77;;;;;;;;;;4998737;28;20046;-61
2024/01/11 10:29:23;;;;;;;89.65;31.80;;;;;;;;;;5000133;28;20054;-61
2024/01/11 10:31:52;;;;;;;85.45;31.88;;;;;;;;;;5001646;28;20637;-61
2024/01/11 10:34:18;;;;;;;84.78;33.08;;;;;;;;;;4995731;28;20041;-61
2024/01/11 10:36:44;;;;;;;81.85;32.15;;;;;;;;;;5003738;28;20026;-60
2024/01/11 10:39:13;;;;;;;79.93;31.27;;;;;;;;;;5006162;28;20037;-60
2024/01/11 10:41:41;;;;;;;83.70;33.28;;;;;;;;;;5004010;28;20050;-61
2024/01/11 10:44:30;;;;;;;80.18;30.77;;;;;;;;;;4994198;28;20034;-60
2024/01/11 10:46:58;;;;;;;79.75;30.67;;;;;;;;;;5000357;28;20045;-60
2024/01/11 10:49:25;;;;;;;90.97;34.28;;;;;;;;;;4997243;28;20560;-59
2024/01/11 10:52:04;;;;;;;96.38;33.97;;;;;;;;;;5000352;28;20517;-60
2024/01/11 10:54:34;;;;;;;90.10;32.67;;;;;;;;;;5000831;28;20050;-60
2024/01/11 10:57:00;;;;;;;;;;;;;;;;;;5003164;28;20030;-61
2024/01/11 10:59:27;;;;;;;88.57;31.08;;;;;;;;;;4999228;28;19909;-60
2024/01/11 11:01:56;;;;;;;89.75;33.95;;;;;;;;;;5001941;28;20038;-61
2024/01/11 11:04:23;;;;;;;92.22;35.08;;;;;;;;;;5002379;28;20049;-61
2024/01/11 11:06:51;;;;;;;88.95;33.67;;;;;;;;;;5001286;28;20043;-61
2024/01/11 11:09:18;;;;;;;82.25;33.53;;;;;;;;;;5001931;28;20038;-61
2024/01/11 11:11:45;;;;;;;84.13;32.50;;;;;;;;;;5005777;28;20046;-60
2024/01/11 11:14:14;;;;;;;87.03;32.33;;;;;;;;;;5003358;28;20031;-61
2024/01/11 11:16:41;;;;;;;93.22;35.63;;;;;;;;;;5002876;28;20057;-61
2024/01/11 11:19:08;;;;;;;88.43;34.78;;;;;;;;;;5006232;28;20053;-61
2024/01/11 11:21:44;;;;;;;84.32;34.63;;;;;;;;;;5001168;28;20041;-62
2024/01/11 11:24:12;;;;;;;87.32;35.83;;;;;;;;;;5002906;28;20406;-61
2024/01/11 11:26:38;;;;;;;90.28;34.33;;;;;;;;;;5006667;28;20038;-61
2024/01/11 11:29:05;;;;;;;87.57;34.60;;;;;;;;;;5005153;28;20053;-61
2024/01/11 11:31:42;;;;;;;96.18;36.05;;;;;;;;;;5003947;28;20397;-61
2024/01/11 11:34:11;;;;;;;90.10;35.85;;;;;;;;;;4997605;28;20474;-61
2024/01/11 11:36:41;;;;;;;100.38;37.75;;;;;;;;;;5003202;28;20623;-60
2024/01/11 11:39:11;;;;;;;97.18;36.38;;;;;;;;;;5000101;28;20038;-61
2024/01/11 11:41:38;;;;;;;;;;;;;;;;;;4998427;28;20084;-61
2024/01/11 11:44:05;;;;;;;86.10;33.45;;;;;;;;;;5002368;28;19910;-61
2024/01/11 11:46:33;;;;;;;85.82;35.17;;;;;;;;;;5000582;28;20038;-62
2024/01/11 11:48:59;;;;;;;84.30;33.85;;;;;;;;;;5000026;28;20037;-62
2024/01/11 11:51:27;;;;;;;88.50;35.50;;;;;;;;;;4998655;28;20500;-62
2024/01/11 11:53:54;;;;;;;92.78;35.88;;;;;;;;;;5002823;28;20053;-61
2024/01/11 11:56:21;;;;;;;88.35;34.92;;;;;;;;;;4998549;28;20392;-60
2024/01/11 11:58:49;;;;;;;87.45;35.50;;;;;;;;;;5004406;28;20052;-60
2024/01/11 12:01:17;;;;;;;90.35;36.70;;;;;;;;;;5001050;28;20034;-60
2024/01/11 12:03:50;;;;;;;99.25;40.03;;;;;;;;;;5005003;28;20042;-60
2024/01/11 12:06:18;;;;;;;93.82;37.72;;;;;;;;;;5002066;28;20485;-60
2024/01/11 12:08:46;;;;;;;85.00;34.33;;;;;;;;;;5004819;28;20046;-60
2024/01/11 12:11:20;;;;;;;87.72;34.85;;;;;;;;;;5002936;28;20053;-60
2024/01/11 12:13:48;;;;;;;82.25;33.50;;;;;;;;;;5004147;28;20408;-60
2024/01/11 12:16:14;;;;;;;79.57;33.45;;;;;;;;;;4999936;28;20042;-59
2024/01/11 12:18:41;;;;;;;81.22;33.35;;;;;;;;;;4997549;28;20401;-59
2024/01/11 12:21:10;;;;;;;81.50;33.65;;;;;;;;;;5001087;28;20045;-60
2024/01/11 12:23:38;;;;;;;85.40;35.28;;;;;;;;;;4998209;28;21696;-60
2024/01/11 12:26:07;;;;;;;85.97;36.47;;;;;;;;;;4996472;28;20034;-60
2024/01/11 12:28:34;;;;;;;83.68;36.38;;;;;;;;;;5003277;28;20053;-60
2024/01/11 12:31:00;;;;;;;79.68;35.63;;;;;;;;;;5001361;28;20046;-61
2024/01/11 12:33:27;;;;;;;83.28;35.47;;;;;;;;;;5005658;28;20034;-58
2024/01/11 12:35:54;;;;;;;84.85;33.83;;;;;;;;;;4999058;28;20049;-61
2024/01/11 12:38:20;;;;;;;78.72;34.42;;;;;;;;;;5000613;28;20030;-60
2024/01/11 12:40:47;;;;;;;80.38;36.03;;;;;;;;;;5006742;28;20033;-60
2024/01/11 12:43:13;;;;;;;78.57;35.90;;;;;;;;;;5001327;28;20061;-61
2024/01/11 12:45:40;;;;;;;79.47;35.38;;;;;;;;;;5001692;28;20504;-61
2024/01/11 12:48:08;;;;;;;83.55;35.75;;;;;;;;;;5000903;28;20069;-61
2024/01/11 12:50:35;;;;;;;83.07;36.13;;;;;;;;;;4998015;28;20057;-61
2024/01/11 12:53:12;;;;;;;84.15;37.10;;;;;;;;;;4998993;28;20038;-61
2024/01/11 12:55:38;;;;;;;79.53;36.97;;;;;;;;;;5002486;28;20064;-60
2024/01/11 12:58:11;;;;;;;86.72;36.53;;;;;;;;;;5001447;28;20496;-60
2024/01/11 13:00:38;;;;;;;76.90;34.92;;;;;;;;;;5002471;28;20057;-61
2024/01/11 13:03:05;;;;;;;77.78;37.20;;;;;;;;;;5000792;28;20053;-61
2024/01/11 13:05:40;;;;;;;86.15;37.75;;;;;;;;;;5001029;28;20045;-61
2024/01/11 13:08:09;;;;;;;79.32;37.08;;;;;;;;;;5000676;28;20030;-60
2024/01/11 13:10:36;;;;;;;82.30;37.42;;;;;;;;;;5000352;28;20038;-59
2024/01/11 13:13:04;;;;;;;86.88;39.28;;;;;;;;;;4998692;28;20046;-59
2024/01/11 13:15:31;;;;;;;83.75;37.38;;;;;;;;;;5003330;28;20042;-59
2024/01/11 13:18:00;;;;;;;90.10;38.40;;;;;;;;;;4994696;28;20045;-59
2024/01/11 13:20:28;;;;;;;88.78;40.47;;;;;;;;;;4999807;28;20050;-59
2024/01/11 13:23:13;;;;;;;80.32;37.63;;;;;;;;;;5012748;28;20493;-59
2024/01/11 13:25:41;;;;;;;90.90;39.60;;;;;;;;;;4995206;28;20578;-59
2024/01/11 13:28:07;;;;;;;92.60;41.83;;;;;;;;;;5000428;28;20033;-60
2024/01/11 13:30:34;;;;;;;85.22;39.50;;;;;;;;;;5002383;28;20046;-59
2024/01/11 13:33:00;;;;;;;87.60;40.70;;;;;;;;;;4995006;28;20057;-59
2024/01/11 13:35:26;;;;;;;83.25;38.63;;;;;;;;;;4995150;28;20424;-60
2024/01/11 13:37:52;;;;;;;76.30;35.67;;;;;;;;;;4999219;28;20034;-60
2024/01/11 13:40:18;;;;;;;80.93;36.50;;;;;;;;;;4995554;28;20037;-57
2024/01/11 13:42:44;;;;;;;83.50;36.25;;;;;;;;;;4996515;28;20026;-60
2024/01/11 13:45:11;;;;;;;83.97;37.10;;;;;;;;;;4994135;28;20478;-60
2024/01/11 13:47:37;;;;;;;86.82;38.55;;;;;;;;;;5000405;28;20425;-61
2024/01/11 13:50:03;;;;;;;87.13;36.65;;;;;;;;;;4991297;28;20371;-60
2024/01/11 13:52:29;;;;;;;74.88;35.15;;;;;;;;;;4997800;28;20046;-60
2024/01/11 13:54:56;;;;;;;87.15;39.45;;;;;;;;;;5003694;28;20029;-60
2024/01/11 13:57:22;;;;;;;86.68;40.58;;;;;;;;;;5001660;28;20030;-60
2024/01/11 13:59:49;;;;;;;79.13;36.97;;;;;;;;;;4994807;28;20072;-59
2024/01/11 14:02:15;;;;;;;87.50;39.55;;;;;;;;;;5002264;28;20045;-59
2024/01/11 14:04:41;;;;;;;91.22;40.33;;;;;;;;;;5004939;28;20044;-58
2024/01/11 14:07:07;;;;;;;87.50;41.15;;;;;;;;;;5011740;28;20030;-60
2024/01/11 14:09:33;;;;;;;88.55;40.53;;;;;;;;;;5003000;28;20042;-60
2024/01/11 14:11:59;;;;;;;87.95;41.70;;;;;;;;;;4998972;28;20036;-59
2024/01/11 14:14:26;;;;;;;90.50;41.70;;;;;;;;;;5005532;28;20366;-61
2024/01/11 14:16:52;;;;;;;91.25;40.60;;;;;;;;;;5001216;28;20036;-59